createdAt,value
2023-01-17T00:55:01.338Z,23.39
2023-01-17T00:56:01.341Z,23.39
2023-01-17T00:57:01.328Z,23.39
2023-01-17T00:58:01.302Z,23.39
2023-01-17T00:59:01.297Z,23.41
2023-01-17T01:00:01.298Z,23.42
2023-01-17T01:01:01.451Z,23.41
2023-01-17T01:02:01.332Z,23.39
2023-01-17T01:03:01.246Z,23.41
2023-01-17T01:04:01.233Z,23.38
2023-01-17T01:05:01.213Z,23.38
2023-01-17T01:06:01.206Z,23.38
2023-01-17T01:07:01.188Z,23.37
2023-01-17T01:08:01.173Z,23.35
2023-01-17T01:09:01.176Z,23.37
2023-01-17T01:10:01.139Z,23.37
2023-01-17T01:11:01.127Z,23.32
2023-01-17T01:12:01.109Z,23.31
2023-01-17T01:13:01.098Z,23.33
2023-01-17T01:14:01.093Z,23.33
2023-01-17T01:15:01.068Z,23.32
2023-01-17T01:16:01.130Z,23.31
2023-01-17T01:17:01.029Z,23.35
2023-01-17T01:18:01.016Z,23.32
2023-01-17T01:19:01.041Z,23.35
2023-01-17T01:20:00.996Z,23.37
2023-01-17T01:21:00.985Z,23.37
2023-01-17T01:22:00.964Z,23.37
2023-01-17T01:23:00.950Z,23.35
2023-01-17T01:24:00.939Z,23.32
2023-01-17T01:25:00.921Z,23.35
2023-01-17T01:26:00.896Z,23.33
2023-01-17T01:27:00.893Z,23.38
2023-01-17T01:28:00.892Z,23.37
2023-01-17T01:29:00.880Z,23.37
2023-01-17T01:30:00.852Z,23.35
2023-01-17T01:31:00.829Z,23.37
2023-01-17T01:32:00.808Z,23.38
2023-01-17T01:33:00.799Z,23.32
2023-01-17T01:34:00.772Z,23.35
2023-01-17T01:35:00.774Z,23.35
2023-01-17T01:36:00.745Z,23.35
2023-01-17T01:37:00.725Z,23.35
2023-01-17T01:38:00.703Z,23.35
2023-01-17T01:39:00.688Z,23.32
2023-01-17T01:40:00.679Z,23.35
2023-01-17T01:41:00.665Z,23.33
2023-01-17T01:42:00.642Z,23.32
2023-01-17T01:43:00.647Z,23.33
2023-01-17T01:44:00.619Z,23.35
2023-01-17T01:45:00.601Z,23.33
2023-01-17T01:46:00.661Z,23.33
2023-01-17T01:47:00.561Z,23.32
2023-01-17T01:48:00.555Z,23.33
2023-01-17T01:49:00.543Z,23.37
2023-01-17T01:50:00.525Z,23.35
2023-01-17T01:51:00.517Z,23.38
2023-01-17T01:52:00.504Z,23.37
2023-01-17T01:53:00.496Z,23.35
2023-01-17T01:54:00.474Z,23.37
2023-01-17T01:55:00.465Z,23.35
2023-01-17T01:56:00.449Z,23.37
2023-01-17T01:57:00.439Z,23.37
2023-01-17T01:58:00.421Z,23.37
2023-01-17T01:59:00.411Z,23.35
2023-01-17T02:00:00.405Z,23.38
2023-01-17T02:01:00.434Z,23.38
2023-01-17T02:02:00.372Z,23.41
2023-01-17T02:03:00.366Z,23.41
2023-01-17T02:04:00.390Z,23.41
2023-01-17T02:05:01.935Z,23.41
2023-01-17T02:06:00.553Z,23.41
2023-01-17T02:07:00.547Z,23.42
2023-01-17T02:08:00.521Z,23.42
2023-01-17T02:09:00.512Z,23.41
2023-01-17T02:10:00.508Z,23.42
2023-01-17T02:11:00.500Z,23.41
2023-01-17T02:12:00.491Z,23.39
2023-01-17T02:13:00.516Z,23.41
2023-01-17T02:14:00.489Z,23.41
2023-01-17T02:15:00.460Z,23.38
2023-01-17T02:16:00.567Z,23.35
2023-01-17T02:17:00.445Z,23.37
2023-01-17T02:18:00.439Z,23.35
2023-01-17T02:19:00.428Z,23.38
2023-01-17T02:20:00.423Z,23.35
2023-01-17T02:21:00.415Z,23.37
2023-01-17T02:22:00.406Z,23.33
2023-01-17T02:23:00.396Z,23.37
2023-01-17T02:24:00.387Z,23.37
2023-01-17T02:25:00.374Z,23.33
2023-01-17T02:26:00.367Z,23.35
2023-01-17T02:27:00.374Z,23.35
2023-01-17T02:28:00.348Z,23.33
2023-01-17T02:29:00.351Z,23.35
2023-01-17T02:30:00.339Z,23.37
2023-01-17T02:31:00.342Z,23.35
2023-01-17T02:32:00.317Z,23.37
2023-01-17T02:33:00.309Z,23.33
2023-01-17T02:34:00.301Z,23.35
2023-01-17T02:35:00.296Z,23.32
2023-01-17T02:36:00.287Z,23.35
2023-01-17T02:37:00.257Z,23.37
2023-01-17T02:38:00.243Z,23.35
2023-01-17T02:39:00.240Z,23.38
2023-01-17T02:40:00.237Z,23.35
2023-01-17T02:41:00.231Z,23.38
2023-01-17T02:42:00.196Z,23.38
2023-01-17T02:43:00.196Z,23.35
2023-01-17T02:44:00.176Z,23.32
2023-01-17T02:45:00.180Z,23.32
2023-01-17T02:46:00.193Z,23.38
2023-01-17T02:47:00.133Z,23.35
2023-01-17T02:48:00.124Z,23.37
2023-01-17T02:49:00.122Z,23.38
2023-01-17T02:50:00.119Z,23.39
2023-01-17T02:51:00.104Z,23.35
2023-01-17T02:52:00.079Z,23.37
2023-01-17T02:53:00.073Z,23.39
2023-01-17T02:54:00.039Z,23.39
2023-01-17T02:55:00.037Z,23.38
2023-01-17T02:56:00.035Z,23.41
2023-01-17T02:57:00.010Z,23.39
2023-01-17T02:57:59.992Z,23.38
2023-01-17T02:58:59.984Z,23.39
2023-01-17T02:59:59.976Z,23.38
2023-01-17T03:01:00.089Z,23.38
2023-01-17T03:02:00.165Z,23.38
2023-01-17T03:02:59.952Z,23.39
2023-01-17T03:03:59.932Z,23.39
2023-01-17T03:04:59.929Z,23.41
2023-01-17T03:05:59.927Z,23.42
2023-01-17T03:06:59.900Z,23.42
2023-01-17T03:07:59.879Z,23.44
2023-01-17T03:08:59.873Z,23.42
2023-01-17T03:09:59.863Z,23.42
2023-01-17T03:10:59.859Z,23.39
2023-01-17T03:11:59.859Z,23.39
2023-01-17T03:12:59.825Z,23.42
2023-01-17T03:13:59.852Z,23.38
2023-01-17T03:14:59.803Z,23.39
2023-01-17T03:15:59.791Z,23.39
2023-01-17T03:16:59.787Z,23.42
2023-01-17T03:17:59.775Z,23.41
2023-01-17T03:18:59.779Z,23.42
2023-01-17T03:19:59.762Z,23.41
2023-01-17T03:20:59.735Z,23.39
2023-01-17T03:21:59.715Z,23.42
2023-01-17T03:22:59.710Z,23.42
2023-01-17T03:23:59.694Z,23.42
2023-01-17T03:24:59.691Z,23.38
2023-01-17T03:25:59.675Z,23.39
2023-01-17T03:26:59.664Z,23.39
2023-01-17T03:27:59.655Z,23.39
2023-01-17T03:28:59.658Z,23.41
2023-01-17T03:29:59.644Z,23.41
2023-01-17T03:30:59.695Z,23.39
2023-01-17T03:31:59.624Z,23.41
2023-01-17T03:32:59.618Z,23.39
2023-01-17T03:33:59.605Z,23.39
2023-01-17T03:34:59.598Z,23.42
2023-01-17T03:35:59.588Z,23.42
2023-01-17T03:36:59.572Z,23.41
2023-01-17T03:37:59.567Z,23.41
2023-01-17T03:38:59.557Z,23.42
2023-01-17T03:39:59.542Z,23.44
2023-01-17T03:40:59.535Z,23.39
2023-01-17T03:41:59.534Z,23.41
2023-01-17T03:42:59.513Z,23.39
2023-01-17T03:43:59.514Z,23.37
2023-01-17T03:44:59.499Z,23.37
2023-01-17T03:45:59.571Z,23.39
2023-01-17T03:46:59.480Z,23.38
2023-01-17T03:47:59.483Z,23.39
2023-01-17T03:48:59.466Z,23.39
2023-01-17T03:49:59.446Z,23.37
2023-01-17T03:50:59.437Z,23.39
2023-01-17T03:51:59.417Z,23.39
2023-01-17T03:52:59.405Z,23.41
2023-01-17T03:53:59.407Z,23.38
2023-01-17T03:54:59.381Z,23.38
2023-01-17T03:55:59.371Z,23.37
2023-01-17T03:56:59.358Z,23.38
2023-01-17T03:57:59.347Z,23.39
2023-01-17T03:58:59.322Z,23.41
2023-01-17T03:59:59.337Z,23.38
2023-01-17T04:00:59.383Z,23.35
2023-01-17T04:01:59.366Z,23.38
2023-01-17T04:02:59.297Z,23.37
2023-01-17T04:03:59.268Z,23.38
2023-01-17T04:04:59.251Z,23.38
2023-01-17T04:05:59.259Z,23.39
2023-01-17T04:06:59.233Z,23.37
2023-01-17T04:07:59.226Z,23.33
2023-01-17T04:08:59.215Z,23.33
2023-01-17T04:09:59.199Z,23.37
2023-01-17T04:10:59.185Z,23.35
2023-01-17T04:11:59.178Z,23.37
2023-01-17T04:12:59.175Z,23.37
2023-01-17T04:13:59.180Z,23.38
2023-01-17T04:14:59.144Z,23.35
2023-01-17T04:15:59.142Z,23.38
2023-01-17T04:16:59.139Z,23.38
2023-01-17T04:17:59.117Z,23.38
2023-01-17T04:18:59.119Z,23.41
2023-01-17T04:19:59.087Z,23.38
2023-01-17T04:20:59.075Z,23.35
2023-01-17T04:21:59.073Z,23.33
2023-01-17T04:22:59.041Z,23.38
2023-01-17T04:27:58.984Z,23.37
2023-01-17T04:28:58.968Z,23.41
2023-01-17T04:29:58.951Z,23.39
2023-01-17T04:30:59.006Z,23.38
2023-01-17T04:31:58.942Z,23.38
2023-01-17T04:32:58.917Z,23.38
2023-01-17T04:33:58.909Z,23.38
2023-01-17T04:34:58.893Z,23.37
2023-01-17T08:13:55.520Z,23.73
2023-01-17T08:14:55.492Z,23.72
2023-01-17T08:15:55.489Z,23.72
2023-01-17T08:16:55.471Z,23.74
2023-01-17T08:17:55.447Z,23.74
2023-01-17T08:18:55.424Z,23.73
2023-01-17T08:19:55.423Z,23.72
2023-01-17T08:20:55.391Z,23.77
2023-01-17T08:21:55.371Z,23.83
2023-01-17T08:22:55.347Z,23.83
2023-01-17T08:23:55.323Z,23.81
2023-01-17T08:24:55.318Z,23.84
2023-01-17T08:25:55.287Z,23.87
2023-01-17T08:26:55.257Z,23.91
2023-01-17T08:27:55.232Z,23.94
2023-01-17T08:28:55.208Z,23.91
2023-01-17T08:29:55.198Z,23.91
2023-01-17T08:30:55.166Z,23.96
2023-01-17T08:31:55.188Z,23.94
2023-01-17T08:32:55.112Z,24.01
2023-01-17T08:33:55.089Z,24.01
2023-01-17T08:34:55.060Z,24.01
2023-01-17T08:35:55.030Z,23.97
2023-01-17T08:36:54.991Z,24.03
2023-01-17T08:37:54.962Z,24.06
2023-01-17T08:38:54.936Z,24.04
2023-01-17T08:39:54.917Z,24.11
2023-01-17T08:40:54.892Z,24.18
2023-01-17T08:41:54.871Z,24.23
2023-01-17T08:42:54.855Z,24.23
2023-01-17T08:43:54.829Z,24.30
2023-01-17T08:44:54.803Z,24.32
2023-01-17T08:45:54.817Z,24.36
2023-01-17T08:46:54.772Z,24.42
2023-01-17T08:47:54.724Z,24.48
2023-01-17T08:48:54.690Z,24.50
2023-01-17T08:49:54.861Z,24.51
2023-01-17T08:50:54.638Z,24.52
2023-01-17T08:51:54.620Z,24.52
2023-01-17T08:53:54.558Z,24.58
2023-01-17T08:55:54.483Z,24.55
2023-01-17T08:56:54.454Z,24.62
2023-01-17T08:57:54.481Z,24.66
2023-01-17T08:58:54.384Z,24.66
2023-01-17T08:59:54.357Z,24.66
2023-01-17T09:00:54.393Z,24.72
2023-01-17T09:01:54.489Z,24.78
2023-01-17T09:02:54.257Z,24.85
2023-01-17T09:03:54.304Z,24.89
2023-01-17T09:04:54.197Z,24.90
2023-01-17T09:05:54.153Z,24.87
2023-01-17T09:06:54.124Z,24.89
2023-01-17T09:07:54.081Z,24.92
2023-01-17T09:08:56.823Z,24.99
2023-01-17T09:09:54.027Z,25.00
2023-01-17T09:10:53.971Z,24.93
2023-01-17T09:11:53.936Z,24.85
2023-01-17T09:12:53.902Z,24.83
2023-01-17T09:13:53.859Z,24.87
2023-01-17T09:14:53.898Z,24.90
2023-01-17T09:15:54.058Z,24.87
2023-01-17T09:16:53.802Z,24.83
2023-01-17T09:17:53.730Z,24.76
2023-01-17T09:18:53.677Z,24.79
2023-01-17T09:19:53.648Z,24.87
2023-01-17T09:20:53.604Z,24.90
2023-01-17T09:21:53.570Z,24.83
2023-01-17T09:22:53.543Z,24.78
2023-01-17T09:23:53.505Z,24.72
2023-01-17T09:24:53.484Z,24.79
2023-01-17T09:25:53.425Z,24.86
2023-01-17T09:26:53.413Z,24.92
2023-01-17T09:27:53.356Z,24.89
2023-01-17T09:28:53.344Z,24.85
2023-01-17T09:29:53.281Z,24.82
2023-01-17T09:30:53.290Z,24.83
2023-01-17T09:31:53.220Z,24.87
2023-01-17T09:32:53.177Z,24.92
2023-01-17T09:33:53.166Z,24.92
2023-01-17T09:34:53.161Z,24.92
2023-01-17T09:35:53.077Z,24.93
2023-01-17T09:36:53.057Z,24.94
2023-01-17T09:37:53.007Z,24.96
2023-01-17T09:38:52.963Z,24.93
2023-01-17T09:39:52.949Z,24.81
2023-01-17T09:40:52.892Z,24.76
2023-01-17T09:41:52.879Z,24.78
2023-01-17T09:42:52.847Z,24.71
2023-01-17T09:43:52.817Z,24.71
2023-01-17T09:44:52.819Z,24.61
2023-01-17T09:45:52.835Z,24.55
2023-01-17T09:46:52.762Z,24.34
2023-01-17T09:47:52.753Z,24.35
2023-01-17T09:48:52.741Z,24.31
2023-01-17T09:49:52.723Z,24.32
2023-01-17T09:50:52.704Z,24.30
2023-01-17T09:51:52.687Z,24.28
2023-01-17T09:52:52.666Z,24.21
2023-01-17T09:53:52.647Z,24.18
2023-01-17T09:54:52.626Z,24.23
2023-01-17T09:55:52.601Z,24.31
2023-01-17T09:56:52.578Z,24.20
2023-01-17T09:57:52.749Z,24.20
2023-01-17T09:58:52.535Z,24.15
2023-01-17T10:00:02.559Z,24.17
2023-01-17T10:00:53.603Z,24.25
2023-01-17T10:01:52.678Z,24.27
2023-01-17T10:02:52.729Z,24.25
2023-01-17T10:03:52.471Z,24.25
2023-01-17T10:04:52.372Z,24.24
2023-01-17T10:05:52.336Z,24.25
2023-01-17T10:06:52.305Z,24.30
2023-01-17T10:07:52.267Z,24.34
2023-01-17T10:08:52.237Z,24.35
2023-01-17T10:09:52.198Z,24.30
2023-01-17T10:10:53.154Z,24.25
2023-01-17T10:11:52.121Z,24.30
2023-01-17T10:12:52.180Z,24.39
2023-01-17T10:13:52.053Z,24.45
2023-01-17T10:14:52.017Z,24.44
2023-01-17T10:15:51.984Z,24.41
2023-01-17T10:16:51.980Z,24.41
2023-01-17T10:17:51.910Z,24.41
2023-01-17T10:18:51.874Z,24.47
2023-01-17T10:19:51.839Z,24.56
2023-01-17T10:20:51.795Z,24.61
2023-01-17T10:21:51.763Z,24.64
2023-01-17T10:22:51.723Z,24.66
2023-01-17T10:23:51.694Z,24.64
2023-01-17T10:24:51.656Z,24.71
2023-01-17T10:25:51.599Z,24.79
2023-01-17T10:26:51.576Z,24.83
2023-01-17T10:27:51.529Z,24.85
2023-01-17T10:28:51.499Z,24.82
2023-01-17T10:29:51.462Z,24.85
2023-01-17T10:30:51.453Z,24.86
2023-01-17T10:31:51.380Z,24.89
2023-01-17T10:32:51.396Z,24.89
2023-01-17T10:33:51.280Z,24.85
2023-01-17T10:34:51.260Z,24.82
2023-01-17T10:35:51.196Z,24.82
2023-01-17T10:36:51.139Z,24.89
2023-01-17T10:37:51.101Z,24.90
2023-01-17T10:38:51.065Z,24.93
2023-01-17T10:39:51.023Z,24.89
2023-01-17T10:40:50.992Z,24.83
2023-01-17T10:41:50.943Z,24.82
2023-01-17T10:42:50.926Z,24.89
2023-01-17T10:43:50.866Z,24.93
2023-01-17T10:44:50.821Z,24.94
2023-01-17T10:45:50.789Z,24.93
2023-01-17T10:46:50.740Z,24.96
2023-01-17T10:47:50.696Z,24.99
2023-01-17T10:48:50.675Z,24.99
2023-01-17T10:49:50.628Z,25.02
2023-01-17T10:50:50.611Z,25.00
2023-01-17T10:51:50.564Z,25.03
2023-01-17T10:52:50.503Z,25.03
2023-01-17T10:53:50.469Z,24.96
2023-01-17T10:54:50.436Z,24.94
2023-01-17T10:55:50.387Z,24.87
2023-01-17T10:56:50.347Z,24.83
2023-01-17T10:57:50.304Z,24.79
2023-01-17T10:58:50.264Z,24.78
2023-01-17T10:59:50.232Z,24.79
2023-01-17T11:00:50.244Z,24.82
2023-01-17T11:01:51.313Z,24.83
2023-01-17T11:02:50.162Z,24.81
2023-01-17T11:03:50.101Z,24.73
2023-01-17T11:04:50.073Z,24.75
2023-01-17T11:05:50.022Z,24.71
2023-01-17T11:06:58.098Z,24.69
2023-01-17T11:07:50.963Z,24.69
2023-01-17T11:08:49.920Z,24.66
2023-01-17T11:09:49.879Z,24.64
2023-01-17T11:10:49.845Z,24.59
2023-01-17T11:11:49.807Z,24.62
2023-01-17T11:12:49.778Z,24.65
2023-01-17T11:13:49.776Z,24.59
2023-01-17T11:14:49.716Z,24.56
2023-01-17T11:15:49.838Z,24.55
2023-01-17T11:16:49.643Z,24.51
2023-01-17T11:17:49.613Z,24.54
2023-01-17T11:18:49.586Z,24.59
2023-01-17T11:19:49.552Z,24.56
2023-01-17T11:20:49.527Z,24.54
2023-01-17T11:21:49.480Z,24.47
2023-01-17T11:22:49.449Z,24.47
2023-01-17T11:23:49.416Z,24.51
2023-01-17T11:24:49.384Z,24.52
2023-01-17T11:25:49.354Z,24.56
2023-01-17T11:26:49.370Z,24.52
2023-01-17T11:27:49.286Z,24.48
2023-01-17T11:28:49.259Z,24.48
2023-01-17T11:29:49.228Z,24.52
2023-01-17T11:30:49.235Z,24.51
2023-01-17T11:31:49.171Z,24.52
2023-01-17T11:32:49.173Z,24.47
2023-01-17T11:33:49.140Z,24.41
2023-01-17T11:34:49.097Z,24.39
2023-01-17T11:35:49.058Z,24.44
2023-01-17T11:36:49.038Z,24.44
2023-01-17T11:37:49.034Z,24.44
2023-01-17T11:38:49.003Z,24.39
2023-01-17T11:39:48.965Z,24.36
2023-01-17T11:40:48.945Z,24.38
2023-01-17T11:41:48.945Z,24.39
2023-01-17T11:42:48.902Z,24.39
2023-01-17T13:52:45.994Z,23.90
2023-01-17T13:53:45.974Z,23.91
2023-01-17T13:54:46.023Z,23.90
2023-01-17T13:55:45.936Z,23.90
2023-01-17T13:56:45.929Z,23.90
2023-01-17T13:57:45.905Z,23.88
2023-01-17T13:58:45.873Z,23.86
2023-01-17T13:59:45.863Z,23.84
2023-01-17T14:00:45.866Z,23.83
2023-01-17T14:01:45.933Z,23.86
2023-01-17T14:02:45.829Z,23.84
2023-01-17T14:03:45.788Z,23.84
2023-01-17T14:04:45.767Z,23.86
2023-01-17T14:05:45.750Z,23.81
2023-01-17T14:06:45.748Z,23.84
2023-01-17T14:07:45.723Z,23.86
2023-01-17T14:08:45.721Z,23.86
2023-01-17T14:09:45.677Z,23.86
2023-01-17T14:10:45.695Z,23.86
2023-01-17T14:11:45.645Z,23.81
2023-01-17T14:12:45.618Z,23.86
2023-01-17T14:13:45.629Z,23.86
2023-01-17T14:14:45.586Z,23.86
2023-01-17T14:15:45.559Z,23.83
2023-01-17T14:16:46.380Z,23.83
2023-01-17T14:17:45.522Z,23.84
2023-01-17T14:18:45.525Z,23.86
2023-01-17T14:19:47.434Z,23.86
2023-01-17T14:20:45.458Z,23.84
2023-01-17T14:21:45.454Z,23.84
2023-01-17T14:22:45.425Z,23.83
2023-01-17T14:23:45.412Z,23.86
2023-01-17T14:24:45.393Z,23.83
2023-01-17T14:25:45.382Z,23.80
2023-01-17T14:26:45.374Z,23.81
2023-01-17T14:27:45.362Z,23.80
2023-01-17T14:28:45.336Z,23.79
2023-01-17T14:29:45.328Z,23.79
2023-01-17T14:30:45.314Z,23.81
2023-01-17T14:31:45.355Z,23.81
2023-01-17T14:32:45.286Z,23.80
2023-01-17T14:33:45.268Z,23.77
2023-01-17T14:34:45.254Z,23.81
2023-01-17T14:35:45.239Z,23.79
2023-01-17T14:36:45.205Z,23.80
2023-01-17T14:37:45.206Z,23.74
2023-01-17T14:38:45.191Z,23.76
2023-01-17T14:39:45.148Z,23.77
2023-01-17T14:40:45.132Z,23.79
2023-01-17T14:41:45.111Z,23.74
2023-01-17T14:42:45.101Z,23.74
2023-01-17T14:43:45.081Z,23.74
2023-01-17T14:44:45.053Z,23.74
2023-01-17T14:45:45.165Z,23.77
2023-01-17T14:46:45.015Z,23.74
2023-01-17T14:47:45.032Z,23.76
2023-01-17T14:48:45.003Z,23.76
2023-01-17T14:49:44.967Z,23.73
2023-01-17T14:50:44.968Z,23.73
2023-01-17T14:51:44.949Z,23.76
2023-01-17T14:52:44.932Z,23.74
2023-01-17T14:53:44.891Z,23.76
2023-01-17T14:54:44.868Z,23.74
2023-01-17T14:55:44.845Z,23.72
2023-01-17T14:56:44.827Z,23.73
2023-01-17T14:57:44.831Z,23.74
2023-01-17T14:58:44.953Z,23.69
2023-01-17T14:59:44.782Z,23.67
2023-01-17T15:00:44.772Z,23.66
2023-01-17T15:01:52.507Z,23.69
2023-01-17T15:02:45.858Z,23.69
2023-01-17T15:03:44.701Z,23.67
2023-01-17T15:04:44.683Z,23.67
2023-01-17T15:05:44.669Z,23.66
2023-01-17T15:06:45.781Z,23.69
2023-01-17T15:07:44.880Z,23.69
2023-01-17T15:08:44.855Z,23.67
2023-01-17T15:09:44.849Z,23.70
2023-01-17T15:10:44.820Z,23.66
2023-01-17T15:11:44.805Z,23.63
2023-01-17T15:12:44.805Z,23.69
2023-01-17T15:13:45.322Z,23.69
2023-01-17T15:14:44.762Z,23.67
2023-01-17T15:15:44.741Z,23.65
2023-01-17T15:16:44.781Z,23.62
2023-01-17T15:17:44.724Z,23.62
2023-01-17T15:18:44.693Z,23.63
2023-01-17T15:19:44.682Z,23.63
2023-01-17T15:20:44.660Z,23.62
2023-01-17T15:21:44.649Z,23.60
2023-01-17T15:22:44.642Z,23.59
2023-01-17T15:23:44.609Z,23.59
2023-01-17T15:24:44.639Z,23.63
2023-01-17T15:25:44.581Z,23.62
2023-01-17T15:26:44.577Z,23.62
2023-01-17T15:27:44.553Z,23.60
2023-01-17T15:28:44.542Z,23.60
2023-01-17T15:29:44.536Z,23.65
2023-01-17T15:30:44.513Z,23.63
2023-01-17T15:31:44.498Z,23.63
2023-01-17T15:32:44.471Z,23.62
2023-01-17T15:33:44.480Z,23.62
2023-01-17T15:34:44.461Z,23.60
2023-01-17T15:35:44.421Z,23.62
2023-01-17T15:36:44.407Z,23.63
2023-01-17T15:37:44.384Z,23.63
2023-01-17T15:38:44.360Z,23.60
2023-01-17T15:39:44.346Z,23.56
2023-01-17T15:40:44.335Z,23.59
2023-01-17T15:41:44.320Z,23.60
2023-01-17T15:42:44.286Z,23.58
2023-01-17T15:43:44.269Z,23.58
2023-01-17T15:44:49.214Z,23.56
2023-01-17T15:45:45.256Z,23.55
2023-01-17T15:46:44.194Z,23.58
2023-01-17T15:47:44.176Z,23.59
2023-01-17T15:48:44.182Z,23.58
2023-01-17T15:49:44.139Z,23.59
2023-01-17T15:50:44.142Z,23.58
2023-01-17T15:51:44.124Z,23.56
2023-01-17T15:52:44.079Z,23.58
2023-01-17T15:53:44.112Z,23.58
2023-01-17T15:54:44.045Z,23.58
2023-01-17T15:55:44.034Z,23.53
2023-01-17T15:56:44.015Z,23.55
2023-01-17T15:57:43.999Z,23.55
2023-01-17T15:58:43.978Z,23.58
2023-01-17T15:59:43.973Z,23.56
2023-01-17T16:00:44.093Z,23.55
2023-01-17T16:01:44.156Z,23.52
2023-01-17T16:02:44.006Z,23.50
2023-01-17T16:03:43.908Z,23.55
2023-01-17T16:04:43.884Z,23.52
2023-01-17T16:05:44.021Z,23.45
2023-01-17T16:06:43.846Z,23.48
2023-01-17T16:07:43.845Z,23.48
2023-01-17T16:08:43.825Z,23.52
2023-01-17T16:09:43.792Z,23.52
2023-01-17T16:10:43.779Z,23.50
2023-01-17T16:11:43.763Z,23.49
2023-01-17T16:12:43.745Z,23.49
2023-01-17T16:13:43.739Z,23.49
2023-01-17T16:14:59.609Z,23.50
2023-01-17T16:15:44.710Z,23.48
2023-01-17T16:16:43.734Z,23.48
2023-01-17T16:17:43.668Z,23.45
2023-01-17T16:18:43.675Z,23.44
2023-01-17T16:19:43.635Z,23.44
2023-01-17T16:20:43.622Z,23.48
2023-01-17T16:21:43.614Z,23.46
2023-01-17T16:22:43.602Z,23.48
2023-01-17T16:23:43.576Z,23.46
2023-01-17T16:24:43.560Z,23.50
2023-01-17T16:25:43.529Z,23.50
2023-01-17T16:26:43.516Z,23.50
2023-01-17T16:27:43.498Z,23.55
2023-01-17T16:28:43.486Z,23.55
2023-01-17T16:29:43.467Z,23.56
2023-01-17T16:30:43.462Z,23.56
2023-01-17T16:31:43.437Z,23.58
2023-01-17T16:32:43.411Z,23.60
2023-01-17T16:33:43.430Z,23.59
2023-01-17T16:34:43.390Z,23.58
2023-01-17T16:35:43.353Z,23.62
2023-01-17T16:36:43.342Z,23.62
2023-01-17T16:37:43.314Z,23.62
2023-01-17T16:38:43.305Z,23.60
2023-01-17T16:39:43.283Z,23.62
2023-01-17T16:40:43.263Z,23.60
2023-01-17T16:41:43.255Z,23.59
2023-01-17T16:42:43.228Z,23.59
2023-01-17T16:43:43.204Z,23.63
2023-01-17T16:44:43.192Z,23.62
2023-01-17T16:45:43.166Z,23.59
2023-01-17T16:46:43.153Z,23.59
2023-01-17T16:47:43.135Z,23.59
2023-01-17T16:48:43.123Z,23.60
2023-01-17T16:49:43.102Z,23.60
2023-01-17T16:50:43.090Z,23.58
2023-01-17T16:51:43.086Z,23.56
2023-01-17T16:52:43.070Z,23.53
2023-01-17T16:53:43.042Z,23.56
2023-01-17T16:54:43.038Z,23.59
2023-01-17T16:55:43.032Z,23.56
2023-01-17T16:56:43.029Z,23.55
2023-01-17T16:57:43.005Z,23.53
2023-01-17T16:58:42.987Z,23.53
2023-01-17T16:59:50.713Z,23.55
2023-01-17T17:00:43.964Z,23.52
2023-01-17T17:01:43.111Z,23.50
2023-01-17T17:02:43.028Z,23.46
2023-01-17T17:03:42.940Z,23.46
2023-01-17T17:04:42.956Z,23.48
2023-01-17T17:05:42.887Z,23.50
2023-01-17T17:06:42.877Z,23.50
2023-01-17T17:07:42.904Z,23.50
2023-01-17T17:08:42.843Z,23.48
2023-01-17T17:09:42.845Z,23.49
2023-01-17T17:10:42.818Z,23.52
2023-01-17T17:11:42.813Z,23.52
2023-01-17T17:12:42.790Z,23.49
2023-01-17T17:13:42.795Z,23.49
2023-01-17T17:14:42.763Z,23.49
2023-01-17T17:15:42.837Z,23.50
2023-01-17T17:16:42.734Z,23.50
2023-01-17T17:17:42.720Z,23.49
2023-01-17T17:18:42.722Z,23.46
2023-01-17T17:19:42.690Z,23.45
2023-01-17T17:20:42.677Z,23.45
2023-01-17T17:21:42.664Z,23.46
2023-01-17T17:22:42.638Z,23.48
2023-01-17T17:23:42.631Z,23.48
2023-01-17T17:24:42.607Z,23.49
2023-01-17T17:25:42.594Z,23.49
2023-01-17T17:26:42.583Z,23.46
2023-01-17T17:27:42.553Z,23.49
2023-01-17T17:28:42.534Z,23.48
2023-01-17T17:29:42.520Z,23.48
2023-01-17T17:30:42.504Z,23.49
2023-01-17T17:31:42.490Z,23.50
2023-01-17T17:32:42.475Z,23.50
2023-01-17T17:33:42.443Z,23.52
2023-01-17T17:34:42.442Z,23.53
2023-01-17T17:35:42.415Z,23.53
2023-01-17T17:36:42.391Z,23.53
2023-01-17T17:37:42.381Z,23.56
2023-01-17T17:38:42.357Z,23.53
2023-01-17T17:39:42.352Z,23.55
2023-01-17T17:40:42.351Z,23.56
2023-01-17T17:41:42.329Z,23.56
2023-01-17T17:42:42.284Z,23.55
2023-01-17T17:43:42.265Z,23.56
2023-01-17T17:44:42.260Z,23.58
2023-01-17T17:45:42.237Z,23.58
2023-01-17T17:46:42.274Z,23.58
2023-01-17T17:47:42.192Z,23.56
2023-01-17T17:48:42.180Z,23.58
2023-01-17T17:49:42.148Z,23.56
2023-01-17T17:50:42.126Z,23.55
2023-01-17T17:51:42.108Z,23.55
2023-01-17T17:52:42.095Z,23.55
2023-01-17T17:53:42.062Z,23.55
2023-01-17T17:54:42.047Z,23.56
2023-01-17T17:55:42.031Z,23.58
2023-01-17T17:56:42.015Z,23.58
2023-01-17T17:57:41.998Z,23.59
2023-01-17T17:58:41.976Z,23.60
2023-01-17T17:59:41.946Z,23.63
2023-01-17T18:00:41.936Z,23.59
2023-01-17T18:01:41.905Z,23.59
2023-01-17T18:02:41.883Z,23.56
2023-01-17T18:03:41.855Z,23.56
2023-01-17T18:04:41.885Z,23.56
2023-01-17T18:05:42.283Z,23.56
2023-01-17T18:06:41.781Z,23.58
2023-01-17T18:07:41.784Z,23.59
2023-01-17T18:08:41.746Z,23.59
2023-01-17T18:09:41.727Z,23.58
2023-01-17T18:10:41.697Z,23.58
2023-01-17T18:11:41.702Z,23.58
2023-01-17T18:12:41.654Z,23.58
2023-01-17T18:13:41.622Z,23.58
2023-01-17T18:14:41.593Z,23.59
2023-01-17T18:15:41.566Z,23.58
2023-01-17T18:16:41.620Z,23.58
2023-01-17T18:17:41.530Z,23.62
2023-01-17T18:18:41.528Z,23.62
2023-01-17T18:19:41.487Z,23.59
2023-01-17T18:20:41.469Z,23.55
2023-01-17T18:21:41.461Z,23.56
2023-01-17T18:22:41.433Z,23.58
2023-01-17T18:23:41.420Z,23.58
2023-01-17T18:24:41.407Z,23.56
2023-01-17T18:25:41.383Z,23.55
2023-01-17T18:26:41.366Z,23.55
2023-01-17T18:27:41.330Z,23.56
2023-01-17T18:28:41.313Z,23.58
2023-01-17T18:29:41.308Z,23.56
2023-01-17T18:30:41.290Z,23.56
2023-01-17T18:31:41.298Z,23.53
2023-01-17T18:32:41.237Z,23.50
2023-01-17T18:33:41.209Z,23.55
2023-01-17T18:34:41.223Z,23.56
2023-01-17T18:35:41.171Z,23.55
2023-01-17T18:36:41.153Z,23.52
2023-01-17T18:37:41.139Z,23.49
2023-01-17T18:38:41.119Z,23.50
2023-01-17T18:39:41.107Z,23.49
2023-01-17T18:40:41.106Z,23.49
2023-01-17T18:41:41.078Z,23.48
2023-01-17T18:42:41.050Z,23.44
2023-01-17T18:43:41.026Z,23.46
2023-01-17T18:44:41.021Z,23.46
2023-01-17T18:45:41.016Z,23.46
2023-01-17T18:46:41.045Z,23.45
2023-01-17T18:47:40.966Z,23.48
2023-01-17T18:48:40.954Z,23.46
2023-01-17T18:49:40.923Z,23.49
2023-01-17T18:50:40.916Z,23.50
2023-01-17T18:51:40.919Z,23.48
2023-01-17T18:52:40.888Z,23.46
2023-01-17T18:53:40.868Z,23.46
2023-01-17T18:54:40.864Z,23.48
2023-01-17T18:55:40.834Z,23.48
2023-01-17T18:56:40.829Z,23.46
2023-01-17T18:57:40.798Z,23.46
2023-01-17T18:58:40.792Z,23.44
2023-01-17T18:59:40.767Z,23.44
2023-01-17T19:00:40.807Z,23.45
2023-01-17T19:01:40.797Z,23.45
2023-01-17T19:02:40.734Z,23.44
2023-01-17T19:03:40.784Z,23.44
2023-01-17T19:04:40.687Z,23.42
2023-01-17T19:05:40.668Z,23.42
2023-01-17T19:06:40.715Z,23.44
2023-01-17T19:07:40.653Z,23.39
2023-01-17T19:08:40.639Z,23.38
2023-01-17T19:09:40.609Z,23.39
2023-01-17T19:10:40.599Z,23.38
2023-01-17T19:11:40.588Z,23.42
2023-01-17T19:12:40.573Z,23.44
2023-01-17T19:13:40.561Z,23.41
2023-01-17T19:14:40.548Z,23.38
2023-01-17T19:15:40.532Z,23.37
2023-01-17T19:16:40.653Z,23.41
2023-01-17T19:17:40.509Z,23.41
2023-01-17T19:18:40.493Z,23.38
2023-01-17T19:19:40.494Z,23.37
2023-01-17T19:20:40.464Z,23.37
2023-01-17T19:21:40.452Z,23.38
2023-01-17T19:22:40.440Z,23.39
2023-01-17T19:23:40.428Z,23.39
2023-01-17T19:24:40.426Z,23.38
2023-01-17T19:25:40.395Z,23.32
2023-01-17T19:26:40.389Z,23.33
2023-01-17T19:27:40.382Z,23.33
2023-01-17T19:28:40.398Z,23.37
2023-01-17T19:29:40.347Z,23.39
2023-01-17T19:30:40.333Z,23.37
2023-01-17T19:31:40.366Z,23.32
2023-01-17T19:32:40.325Z,23.33
2023-01-17T19:33:40.319Z,23.37
2023-01-17T19:34:40.285Z,23.37
2023-01-17T19:35:40.269Z,23.33
2023-01-17T19:36:40.268Z,23.32
2023-01-17T19:37:40.246Z,23.29
2023-01-17T19:38:40.251Z,23.29
2023-01-17T19:39:40.213Z,23.28